createdAt,value
2024-05-09T00:02:06.399Z,99352.63
2024-05-09T00:07:12.105Z,99357.44
2024-05-09T00:12:20.344Z,99367.09
2024-05-09T00:17:26.342Z,99358.16
2024-05-09T00:22:31.779Z,99371.72
2024-05-09T00:27:40.131Z,99381.69
2024-05-09T00:32:45.614Z,99384.25
2024-05-09T00:37:51.403Z,99386.13
2024-05-09T00:42:59.525Z,99379.81
2024-05-09T00:48:09.683Z,99386.34
2024-05-09T00:53:17.504Z,99385.06
2024-05-09T00:58:27.735Z,99369.97
2024-05-09T01:03:33.400Z,99384.56
2024-05-09T01:08:39.455Z,99384.94
2024-05-09T01:13:47.904Z,99389.91
2024-05-09T01:18:53.940Z,99392.88
2024-05-09T01:24:02.060Z,99399.88
2024-05-09T01:29:08.045Z,99395.78
2024-05-09T01:34:13.491Z,99393.41
2024-05-09T01:39:21.724Z,99403.25
2024-05-09T01:44:27.194Z,99393.59
2024-05-09T01:49:33.828Z,99399.63
2024-05-09T01:54:41.946Z,99401.94
2024-05-09T01:59:47.341Z,99401.16
2024-05-09T02:04:52.957Z,99407.97
2024-05-09T02:10:01.343Z,99404.88
2024-05-09T02:15:06.877Z,99412.97
2024-05-09T02:20:18.754Z,99416.03
2024-05-09T02:25:35.596Z,99416.41
2024-05-09T02:30:42.548Z,99416.09
2024-05-09T02:35:48.203Z,99433.97
2024-05-09T02:40:56.248Z,99422.31
2024-05-09T02:46:01.613Z,99433.97
2024-05-09T02:51:07.856Z,99438.69
2024-05-09T02:56:15.998Z,99443.00
2024-05-09T03:01:21.682Z,99442.41
2024-05-09T03:06:27.449Z,99446.78
2024-05-09T03:11:35.997Z,99443.91
2024-05-09T03:16:41.729Z,99435.28
2024-05-09T03:21:47.386Z,99449.69
2024-05-09T03:26:55.745Z,99446.06
2024-05-09T03:32:03.357Z,99439.56
2024-05-09T03:37:09.239Z,99441.59
2024-05-09T03:42:17.265Z,99456.94
2024-05-09T03:47:24.049Z,99442.75
2024-05-09T03:52:29.611Z,99454.84
2024-05-09T03:57:37.663Z,99448.84
2024-05-09T04:02:45.836Z,99448.53
2024-05-09T04:07:51.318Z,99435.72
2024-05-09T04:12:59.474Z,99447.03
2024-05-09T04:18:05.220Z,99451.97
2024-05-09T04:23:14.384Z,99462.91
2024-05-09T04:28:24.025Z,99446.06
2024-05-09T04:33:30.021Z,99469.31
2024-05-09T04:38:36.110Z,99452.69
2024-05-09T04:43:44.319Z,99451.84
2024-05-09T04:48:49.772Z,99463.56
2024-05-09T04:53:55.227Z,99458.94
2024-05-09T04:59:03.472Z,99468.00
2024-05-09T05:04:08.934Z,99461.88
2024-05-09T05:09:14.283Z,99446.03
2024-05-09T05:14:22.314Z,99449.00
2024-05-09T05:19:28.030Z,99451.31
2024-05-09T05:24:33.431Z,99446.72
2024-05-09T05:29:41.531Z,99451.56
2024-05-09T05:34:47.127Z,99445.34
2024-05-09T05:39:52.808Z,99442.34
2024-05-09T05:45:00.839Z,99447.81
2024-05-09T05:50:14.502Z,99447.25
2024-05-09T05:55:26.235Z,99445.22
2024-05-09T06:00:38.780Z,99430.97
2024-05-09T06:05:47.088Z,99429.19
2024-05-09T06:10:52.841Z,99429.06
2024-05-09T06:16:02.652Z,99427.72
2024-05-09T06:21:08.217Z,99428.81
2024-05-09T06:26:13.644Z,99432.50
2024-05-09T06:31:21.767Z,99420.19
2024-05-09T06:36:27.284Z,99422.34
2024-05-09T06:41:32.750Z,99416.56
2024-05-09T06:46:42.236Z,99423.19
2024-05-09T06:51:47.623Z,99411.31
2024-05-09T06:56:53.064Z,99411.69
2024-05-09T07:02:01.218Z,99409.72
2024-05-09T07:07:09.502Z,99411.50
2024-05-09T07:12:15.023Z,99402.78
2024-05-09T07:17:23.611Z,99394.19
2024-05-09T07:22:29.798Z,99386.88
2024-05-09T07:27:35.212Z,99392.53
2024-05-09T07:32:45.389Z,99394.91
2024-05-09T07:37:51.066Z,99388.72
2024-05-09T07:42:56.514Z,99381.16
2024-05-09T07:53:37.269Z,99396.47
2024-05-09T07:58:38.429Z,99390.25
2024-05-09T08:03:46.771Z,99374.25
2024-05-09T08:08:52.510Z,99375.16
2024-05-09T08:13:58.222Z,99384.66
2024-05-09T08:19:06.346Z,99397.91
2024-05-09T08:24:11.926Z,99386.31
2024-05-09T08:29:17.377Z,99378.28
2024-05-09T08:34:25.732Z,99356.81
2024-05-09T08:39:31.258Z,99355.25
2024-05-09T08:44:39.354Z,99351.78
2024-05-09T08:49:47.526Z,99365.28
2024-05-09T08:54:54.950Z,99363.69
2024-05-09T09:00:09.970Z,99370.19
2024-05-09T09:05:21.789Z,99354.59
2024-05-09T09:10:32.138Z,99342.75
2024-05-09T09:15:50.058Z,99353.34
2024-05-09T09:20:58.892Z,99361.88
2024-05-09T09:26:04.698Z,99360.72
2024-05-09T09:31:10.488Z,99358.69
2024-05-09T09:36:19.287Z,99359.88
2024-05-09T09:41:32.924Z,99355.38
2024-05-09T09:46:39.833Z,99368.47
2024-05-09T09:51:49.548Z,99356.19
2024-05-09T09:56:55.690Z,99358.84
2024-05-09T10:02:01.674Z,99361.47
2024-05-09T10:07:13.175Z,99359.13
2024-05-09T10:12:18.964Z,99333.94
2024-05-09T10:17:24.733Z,99334.69
2024-05-09T10:22:34.171Z,99332.69
2024-05-09T10:27:39.991Z,99324.91
2024-05-09T10:32:45.583Z,99339.78
2024-05-09T10:37:56.131Z,99314.84
2024-05-09T10:43:05.854Z,99317.47
2024-05-09T10:48:12.292Z,99310.59
2024-05-09T10:53:20.611Z,99307.91
2024-05-09T10:58:26.750Z,99303.78
2024-05-09T11:03:32.426Z,99294.16
2024-05-09T11:08:42.142Z,99307.91
2024-05-09T11:13:47.634Z,99293.22
2024-05-09T11:18:58.955Z,99296.06
2024-05-09T11:24:10.985Z,99280.50
2024-05-09T11:29:19.524Z,99281.31
2024-05-09T11:34:25.299Z,99279.47
2024-05-09T11:39:33.904Z,99268.94
2024-05-09T11:44:39.446Z,99258.56
2024-05-09T11:49:46.587Z,99282.00
2024-05-09T11:54:54.723Z,99267.44
2024-05-09T12:00:00.746Z,99255.28
2024-05-09T12:05:06.441Z,99271.84
2024-05-09T12:10:19.636Z,99250.16
2024-05-09T12:15:28.034Z,99257.00
2024-05-09T12:20:49.602Z,99255.31
2024-05-09T12:25:57.822Z,99232.06
2024-05-09T12:31:03.514Z,99232.84
2024-05-09T12:36:09.457Z,99235.41
2024-05-09T12:41:17.921Z,99235.50
2024-05-09T12:46:23.685Z,99233.88
2024-05-09T12:51:31.275Z,99237.22
2024-05-09T12:56:39.402Z,99235.38
2024-05-09T13:01:44.816Z,99226.88
2024-05-09T13:06:50.379Z,99220.06
2024-05-09T13:11:58.513Z,99218.34
2024-05-09T13:17:04.080Z,99211.50
2024-05-09T13:22:09.729Z,99196.91
2024-05-09T13:27:17.980Z,99208.91
2024-05-09T13:32:23.534Z,99201.13
2024-05-09T13:37:28.999Z,99206.16
2024-05-09T13:42:37.234Z,99190.63
2024-05-09T13:47:42.913Z,99188.94
2024-05-09T13:52:48.499Z,99187.16
2024-05-09T13:57:56.999Z,99180.31
2024-05-09T14:03:02.579Z,99178.66
2024-05-09T14:08:08.863Z,99173.59
2024-05-09T14:13:17.280Z,99173.50
2024-05-09T14:18:23.186Z,99162.13
2024-05-09T14:23:28.589Z,99163.84
2024-05-09T14:28:36.724Z,99158.66
2024-05-09T14:33:42.135Z,99155.28
2024-05-09T14:38:47.689Z,99142.28
2024-05-09T14:43:55.757Z,99134.44
2024-05-09T14:49:01.540Z,99132.75
2024-05-09T14:54:07.076Z,99124.97
2024-05-09T14:59:15.153Z,99130.97
2024-05-09T15:04:20.678Z,99072.25
2024-05-09T15:09:26.745Z,99120.53
2024-05-09T15:14:34.859Z,99109.31
2024-05-09T15:19:40.921Z,99103.31
2024-05-09T15:24:48.050Z,99104.28
2024-05-09T15:29:56.422Z,99106.06
2024-05-09T15:35:01.892Z,99107.69
2024-05-09T15:40:18.283Z,99094.75
2024-05-09T15:45:32.221Z,99084.28
2024-05-09T15:50:41.038Z,99085.81
2024-05-09T15:55:47.908Z,99083.13
2024-05-09T16:00:56.661Z,99089.06
2024-05-09T16:06:02.447Z,99074.38
2024-05-09T16:11:08.609Z,99073.38
2024-05-09T16:16:16.927Z,99071.59
2024-05-09T16:21:22.784Z,99069.78
2024-05-09T16:26:28.464Z,99071.50
2024-05-09T16:31:36.971Z,99063.84
2024-05-09T16:36:44.270Z,99062.06
2024-05-09T16:41:50.087Z,99063.00
2024-05-09T16:46:58.488Z,99053.41
2024-05-09T16:52:04.189Z,99045.63
2024-05-09T16:57:10.206Z,99045.56
2024-05-09T17:02:18.819Z,99041.28
2024-05-09T17:07:24.903Z,99048.16
2024-05-09T17:12:30.599Z,99046.34
2024-05-09T17:17:39.080Z,99040.13
2024-05-09T17:22:44.782Z,99038.13
2024-05-09T17:27:50.730Z,99043.78
2024-05-09T17:32:59.629Z,99039.91
2024-05-09T17:38:05.454Z,99030.22
2024-05-09T17:43:11.338Z,99046.34
2024-05-09T17:48:20.586Z,99039.31
2024-05-09T17:53:26.104Z,99041.78
2024-05-09T17:58:32.092Z,99051.94
2024-05-09T18:03:40.486Z,99046.63
2024-05-09T18:08:46.402Z,99044.69
2024-05-09T18:13:53.256Z,99041.13
2024-05-09T18:19:01.966Z,99041.13
2024-05-09T18:24:07.676Z,99033.38
2024-05-09T18:29:13.704Z,98984.72
2024-05-09T18:34:21.864Z,99021.75
2024-05-09T18:39:27.741Z,99013.53
2024-05-09T18:44:33.270Z,99003.69
2024-05-09T18:49:41.737Z,99012.00
2024-05-09T18:54:48.051Z,99005.88
2024-05-09T18:59:53.787Z,99011.53
2024-05-09T19:05:01.981Z,99000.91
2024-05-09T19:10:21.857Z,99006.84
2024-05-09T19:15:31.024Z,99010.97
2024-05-09T19:20:39.646Z,98998.81
2024-05-09T19:25:45.225Z,99002.09
2024-05-09T19:30:50.948Z,99004.44
2024-05-09T19:35:59.106Z,99002.59
2024-05-09T19:41:04.803Z,99002.59
2024-05-09T19:46:10.261Z,99003.31
2024-05-09T19:51:18.755Z,99001.50
2024-05-09T19:56:24.673Z,98999.91
2024-05-09T20:01:30.370Z,99000.81
2024-05-09T20:06:40.605Z,98996.47
2024-05-09T20:11:46.312Z,98994.81
2024-05-09T20:16:51.985Z,98976.63
2024-05-09T20:22:00.568Z,98983.44
2024-05-09T20:27:06.298Z,98985.19
2024-05-09T20:32:12.010Z,98977.28
2024-05-09T20:37:20.368Z,98978.72
2024-05-09T20:42:25.760Z,98978.72
2024-05-09T20:47:31.191Z,98973.56
2024-05-09T20:52:39.439Z,98973.44
2024-05-09T20:57:45.146Z,98978.50
2024-05-09T21:02:50.619Z,98976.69
2024-05-09T21:07:59.096Z,98976.00
2024-05-09T21:13:05.269Z,98966.91
2024-05-09T21:18:12.066Z,98971.31
2024-05-09T21:23:20.120Z,98974.81
2024-05-09T21:28:25.684Z,98969.09
2024-05-09T21:33:31.260Z,98967.00
2024-05-09T21:38:39.860Z,98967.09
2024-05-09T21:43:45.250Z,98964.00
2024-05-09T21:48:50.865Z,98956.31
2024-05-09T21:53:59.153Z,98954.38
2024-05-09T21:59:04.859Z,98963.16
2024-05-09T22:04:11.275Z,98955.59
2024-05-09T22:09:19.942Z,98958.25
2024-05-09T22:14:25.394Z,98955.53
2024-05-09T22:19:31.074Z,98954.00
2024-05-09T22:24:39.338Z,98960.88
2024-05-09T22:29:45.093Z,98951.59
2024-05-09T22:34:50.510Z,98954.13
2024-05-09T22:39:58.966Z,98949.56
2024-05-09T22:45:04.438Z,98952.22
2024-05-09T22:50:16.229Z,98942.81
2024-05-09T22:55:30.579Z,98955.63
2024-05-09T23:00:36.542Z,98948.13
2024-05-09T23:05:41.982Z,98937.19
2024-05-09T23:10:50.420Z,98937.47
2024-05-09T23:15:55.795Z,98938.50
2024-05-09T23:21:03.239Z,98931.88
2024-05-09T23:26:11.402Z,98938.84
2024-05-09T23:31:17.099Z,98934.66
2024-05-09T23:36:22.845Z,98935.53
2024-05-09T23:41:31.248Z,98916.63
2024-05-09T23:46:36.655Z,98922.78
2024-05-09T23:51:42.328Z,98921.81
2024-05-09T23:56:50.695Z,98913.09
